top of page

MENDOCINO DRILL FIRE

Updated: Nov 27, 2022

NOVEMBER 25-27, 2022

OPENED TO: UNIT MEMBERS & STUDENT MEMBERS


STATUS:

SMOKE CHECK - COMPLETE

SIZE UP - COMPLETE ( SCROLL DOWN )

CONTAINMENT - 5%

SOLO DROPS OPENED - N / A


LOCATION:

ENI - MENDOCINO VOR


FTA INFORMATION:

ENI VOR

5 MILE RADIUS

SFR - 8000 ft

FREQ: 125.525 CALL 10 MILES OUT

SOLO DROPS: OPEN


RESOURCES ATTACHED:

AS NEEDED CHECK IN TO DISPATCH OFFLINE


IRL RESOURCES:

N / A DRILL FIRE


ANY STUDENT OR TRAINING PILOT MAY JOIN BUT AN INSTRUCTOR MUST BE PRESENT


CONTACT DISPATCH 168.650 OF AIRCRAFT TYPE, CALLSIGN, FIRE RESPONDING TO, AND VFU NUMBER


LOG HOURS WORKED IN THE HOUR LOG WHEN CHECKING OUT


---------------------------------------------------------------------------------------------------------------------------


SMOKE CHECK

DRILL


MENDOCINO DRILL FIRE SIZE UP

11/27/2022


- WILDLAND DRILL FIRE

-N39°3.36' W123°16.78'

- 1,000 ACRES

- INITIAL ATTACK

- IC VFU01 - BRANDON CHEUNG | MENDOCINO DRILL FIRE

- KUKI 271956Z AUTO 00000KT 10SM CLR 14/04 A3013 RMK AO2 SLP199 T01440039

- FTA FREQ: 125.525

- HAZARDS: MOUNTAINS AND POWERLINES

- RESOURCES REQUIRED

- 1x ARAT

- LATs

- VLATs (HVLATs :ballot_box_with_check: )

- Type 2 Helis

- Type 1 Heli


OPS STARTS AT 22:00Z

11 views0 comments
bottom of page